Taouey — ZCAY9 — position and weather

sailwx.info

Track history (hours):
 
Tides and Currents Weather Stations Pressure Air Temp Water Temp Dewpoint Dewpoint Depression Visibility Wind Speed Wind Dir Waves Ship Positions

Taouey

Last reported at 2015-Jul-03 00:17 UTC. Time now 2015-Jul-03 06:10 UTC.
Position N 41°04' E 009°32'.

Length 58 m; draft 4 m.

MMSI: 310079000.

Date/timePositionNaut miles runAvg speedWind from/ knotsBaromVisibWave heightAir tempDewpointWater temp
2015-Jul-03 00:17N 41°04' E 009°32'0 0.0
2015-Jul-02 16:33N 41°04' E 009°32'0 0.0
2015-Jul-02 12:25N 41°04' E 009°32'0 0.0
2015-Jul-02 00:32N 41°04' E 009°32'0 0.0
2015-Jul-01 22:04N 41°04' E 009°32'0 0.0
2015-Jul-01 17:28N 41°04' E 009°32'0 0.0
2015-Jul-01 12:26N 41°04' E 009°32'0 0.0
2015-Jul-01 11:32N 41°04' E 009°32'0 0.0
2015-Jul-01 10:29N 41°04' E 009°32'0 0.0
2015-Jul-01 09:33N 41°04' E 009°32'0 0.0
2015-Jul-01 02:33N 41°04' E 009°32'0 0.0
2015-Jul-01 01:31N 41°04' E 009°32'0 0.0
2015-Jul-01 00:32N 41°04' E 009°32'0 0.0
2015-Jun-30 23:31N 41°04' E 009°32'0 0.0
2015-Jun-30 18:31N 41°04' E 009°32'0 0.0
2015-Jun-30 17:04N 41°04' E 009°32'0 0.0
2015-Jun-30 15:26N 41°04' E 009°32'0 0.0
2015-Jun-30 14:33N 41°04' E 009°32'0 0.0
2015-Jun-30 13:33N 41°04' E 009°32'0 0.0
2015-Jun-29 19:15N 41°04' E 009°32'0 0.1
2015-Jun-29 18:30N 41°04' E 009°32'0 0.0
2015-Jun-29 17:33N 41°04' E 009°32'0 0.0
2015-Jun-29 16:30N 41°04' E 009°32'0 0.0
2015-Jun-29 14:05N 41°04' E 009°32'0 0.0
2015-Jun-29 13:14N 41°04' E 009°32'0 0.0
2015-Jun-29 12:33N 41°04' E 009°32'0 0.0
2015-Jun-29 11:32N 41°04' E 009°32'4 1.4
2015-Jun-29 08:33N 41°08' E 009°34'9111.0
2015-Jun-29 00:16N 42°19' E 008°17'912.2
2015-Jun-28 23:32N 42°27' E 008°12'1312.3
2015-Jun-28 22:29N 42°39' E 008°06'1212.4
2015-Jun-28 21:33N 42°49' E 007°58'1312.6
2015-Jun-28 20:32N 43°01' E 007°50'1111.6
2015-Jun-28 19:33N 43°11' E 007°45'10 9.4
2015-Jun-28 18:27N 43°21' E 007°39'1112.7
2015-Jun-28 17:33N 43°32' E 007°33'14 0.9
2015-Jun-28 03:03N 43°44' E 007°26'0 0.0
2015-Jun-28 01:31N 43°44' E 007°26'0 0.0
2015-Jun-28 00:24N 43°44' E 007°26'0 0.0
2015-Jun-27 19:33N 43°44' E 007°26'0 0.0
2015-Jun-27 18:33N 43°44' E 007°26'0 0.0
2015-Jun-27 17:33N 43°44' E 007°26'0 0.0
2015-Jun-27 16:31N 43°44' E 007°26'0 0.0
2015-Jun-27 15:33N 43°44' E 007°26'0 0.0
2015-Jun-27 14:33N 43°44' E 007°26'0 0.0
2015-Jun-27 13:33N 43°44' E 007°26'0 0.0
2015-Jun-27 12:33N 43°44' E 007°26'0 0.0
2015-Jun-27 09:33N 43°44' E 007°26'0 0.0
2015-Jun-27 07:33N 43°44' E 007°26'0 0.0
2015-Jun-25 16:33N 43°44' E 007°26'2 2.1
2015-Jun-25 15:33N 43°42' E 007°24'1212.6
2015-Jun-25 14:33N 43°34' E 007°11'7 5.8
2015-Jun-25 13:15N 43°32' E 007°01'0 0.0
2015-Jun-25 11:30N 43°32' E 007°01'0 0.0
2015-Jun-25 04:31N 43°32' E 007°01'0 0.0
2015-Jun-25 03:27N 43°32' E 007°01'0 0.0
2015-Jun-25 02:06N 43°32' E 007°01'0 0.0
2015-Jun-25 01:33N 43°32' E 007°01'0 0.0
2015-Jun-25 00:33N 43°32' E 007°01'0 0.0
2015-Jun-24 23:33N 43°32' E 007°01'0 0.0
2015-Jun-24 22:10N 43°32' E 007°01'0 0.0
2015-Jun-24 21:33N 43°32' E 007°01'0 0.0
2015-Jun-24 20:33N 43°32' E 007°01'0 0.0
2015-Jun-24 16:09N 43°32' E 007°01'4 7.3
2015-Jun-24 15:33N 43°31' E 007°07'1312.9
2015-Jun-24 14:33N 43°40' E 007°20'  
Track history (hours):
 
Tides and Currents Weather Stations Pressure Air Temp Water Temp Dewpoint Dewpoint Depression Visibility Wind Speed Wind Dir Waves Ship Positions

Taouey

Last reported at 2015-Jul-03 00:17 UTC. Time now 2015-Jul-03 06:10 UTC.
Position N 41°04' E 009°32'.

Length 58 m; draft 4 m.

MMSI: 310079000.

Date/timePositionNaut miles runAvg speedWind from/ knotsBaromVisibWave heightAir tempDewpointWater temp
2015-Jul-03 00:17N 41°04' E 009°32'0 0.0
2015-Jul-02 16:33N 41°04' E 009°32'0 0.0
2015-Jul-02 12:25N 41°04' E 009°32'0 0.0
2015-Jul-02 00:32N 41°04' E 009°32'0 0.0
2015-Jul-01 22:04N 41°04' E 009°32'0 0.0
2015-Jul-01 17:28N 41°04' E 009°32'0 0.0
2015-Jul-01 12:26N 41°04' E 009°32'0 0.0
2015-Jul-01 11:32N 41°04' E 009°32'0 0.0
2015-Jul-01 10:29N 41°04' E 009°32'0 0.0
2015-Jul-01 09:33N 41°04' E 009°32'0 0.0
2015-Jul-01 02:33N 41°04' E 009°32'0 0.0
2015-Jul-01 01:31N 41°04' E 009°32'0 0.0
2015-Jul-01 00:32N 41°04' E 009°32'0 0.0
2015-Jun-30 23:31N 41°04' E 009°32'0 0.0
2015-Jun-30 18:31N 41°04' E 009°32'0 0.0
2015-Jun-30 17:04N 41°04' E 009°32'0 0.0
2015-Jun-30 15:26N 41°04' E 009°32'0 0.0
2015-Jun-30 14:33N 41°04' E 009°32'0 0.0
2015-Jun-30 13:33N 41°04' E 009°32'0 0.0
2015-Jun-29 19:15N 41°04' E 009°32'0 0.1
2015-Jun-29 18:30N 41°04' E 009°32'0 0.0
2015-Jun-29 17:33N 41°04' E 009°32'0 0.0
2015-Jun-29 16:30N 41°04' E 009°32'0 0.0
2015-Jun-29 14:05N 41°04' E 009°32'0 0.0
2015-Jun-29 13:14N 41°04' E 009°32'0 0.0
2015-Jun-29 12:33N 41°04' E 009°32'0 0.0
2015-Jun-29 11:32N 41°04' E 009°32'4 1.4
2015-Jun-29 08:33N 41°08' E 009°34'9111.0
2015-Jun-29 00:16N 42°19' E 008°17'912.2
2015-Jun-28 23:32N 42°27' E 008°12'1312.3
2015-Jun-28 22:29N 42°39' E 008°06'1212.4
2015-Jun-28 21:33N 42°49' E 007°58'1312.6
2015-Jun-28 20:32N 43°01' E 007°50'1111.6
2015-Jun-28 19:33N 43°11' E 007°45'10 9.4
2015-Jun-28 18:27N 43°21' E 007°39'1112.7
2015-Jun-28 17:33N 43°32' E 007°33'14 0.9
2015-Jun-28 03:03N 43°44' E 007°26'0 0.0
2015-Jun-28 01:31N 43°44' E 007°26'0 0.0
2015-Jun-28 00:24N 43°44' E 007°26'0 0.0
2015-Jun-27 19:33N 43°44' E 007°26'0 0.0
2015-Jun-27 18:33N 43°44' E 007°26'0 0.0
2015-Jun-27 17:33N 43°44' E 007°26'0 0.0
2015-Jun-27 16:31N 43°44' E 007°26'0 0.0
2015-Jun-27 15:33N 43°44' E 007°26'0 0.0
2015-Jun-27 14:33N 43°44' E 007°26'0 0.0
2015-Jun-27 13:33N 43°44' E 007°26'0 0.0
2015-Jun-27 12:33N 43°44' E 007°26'0 0.0
2015-Jun-27 09:33N 43°44' E 007°26'0 0.0
2015-Jun-27 07:33N 43°44' E 007°26'0 0.0
2015-Jun-25 16:33N 43°44' E 007°26'2 2.1
2015-Jun-25 15:33N 43°42' E 007°24'1212.6
2015-Jun-25 14:33N 43°34' E 007°11'7 5.8
2015-Jun-25 13:15N 43°32' E 007°01'0 0.0
2015-Jun-25 11:30N 43°32' E 007°01'0 0.0
2015-Jun-25 04:31N 43°32' E 007°01'0 0.0
2015-Jun-25 03:27N 43°32' E 007°01'0 0.0
2015-Jun-25 02:06N 43°32' E 007°01'0 0.0
2015-Jun-25 01:33N 43°32' E 007°01'0 0.0
2015-Jun-25 00:33N 43°32' E 007°01'0 0.0
2015-Jun-24 23:33N 43°32' E 007°01'0 0.0
2015-Jun-24 22:10N 43°32' E 007°01'0 0.0
2015-Jun-24 21:33N 43°32' E 007°01'0 0.0
2015-Jun-24 20:33N 43°32' E 007°01'0 0.0
2015-Jun-24 16:09N 43°32' E 007°01'4 7.3
2015-Jun-24 15:33N 43°31' E 007°07'1312.9
2015-Jun-24 14:33N 43°40' E 007°20'  

Dump ship's entire track history